sensor_id;sensor_type;location;lat;lon;timestamp;temperature;humidity
42615;DHT22;28754;47.700;7.924;2024-03-08T00:00:28;2.20;99.90
42615;DHT22;28754;47.700;7.924;2024-03-08T00:03:14;2.20;99.90
42615;DHT22;28754;47.700;7.924;2024-03-08T00:06:02;2.20;99.90
42615;DHT22;28754;47.700;7.924;2024-03-08T00:08:48;2.20;99.90
42615;DHT22;28754;47.700;7.924;2024-03-08T00:11:35;2.10;99.90
42615;DHT22;28754;47.700;7.924;2024-03-08T00:14:22;2.20;99.90
42615;DHT22;28754;47.700;7.924;2024-03-08T00:17:08;2.20;99.90
42615;DHT22;28754;47.700;7.924;2024-03-08T00:19:55;2.10;99.90
42615;DHT22;28754;47.700;7.924;2024-03-08T00:22:42;2.10;99.90
42615;DHT22;28754;47.700;7.924;2024-03-08T00:25:29;2.10;99.90
42615;DHT22;28754;47.700;7.924;2024-03-08T00:28:16;2.00;99.90
42615;DHT22;28754;47.700;7.924;2024-03-08T00:31:05;2.10;99.90
42615;DHT22;28754;47.700;7.924;2024-03-08T00:33:53;2.00;99.90
42615;DHT22;28754;47.700;7.924;2024-03-08T00:36:39;2.00;99.90
42615;DHT22;28754;47.700;7.924;2024-03-08T00:39:26;2.00;99.90
42615;DHT22;28754;47.700;7.924;2024-03-08T00:42:13;1.90;99.90
42615;DHT22;28754;47.700;7.924;2024-03-08T00:45:00;1.90;99.90
42615;DHT22;28754;47.700;7.924;2024-03-08T00:47:46;1.80;99.90
42615;DHT22;28754;47.700;7.924;2024-03-08T00:50:33;1.70;99.90
42615;DHT22;28754;47.700;7.924;2024-03-08T00:53:20;1.70;99.90
42615;DHT22;28754;47.700;7.924;2024-03-08T00:56:08;1.70;99.90
42615;DHT22;28754;47.700;7.924;2024-03-08T00:58:57;1.70;99.90
42615;DHT22;28754;47.700;7.924;2024-03-08T01:01:45;1.70;99.90
42615;DHT22;28754;47.700;7.924;2024-03-08T01:04:32;1.60;99.90
42615;DHT22;28754;47.700;7.924;2024-03-08T01:07:19;1.60;99.90
42615;DHT22;28754;47.700;7.924;2024-03-08T01:10:06;1.60;99.90
42615;DHT22;28754;47.700;7.924;2024-03-08T01:12:55;1.60;99.90
42615;DHT22;28754;47.700;7.924;2024-03-08T01:15:43;1.50;99.90
42615;DHT22;28754;47.700;7.924;2024-03-08T01:18:29;1.50;99.90
42615;DHT22;28754;47.700;7.924;2024-03-08T01:21:16;1.50;99.90
42615;DHT22;28754;47.700;7.924;2024-03-08T01:24:03;1.50;99.90
42615;DHT22;28754;47.700;7.924;2024-03-08T01:26:50;1.50;99.90
42615;DHT22;28754;47.700;7.924;2024-03-08T01:29:37;1.40;99.90
42615;DHT22;28754;47.700;7.924;2024-03-08T01:32:23;1.40;99.90
42615;DHT22;28754;47.700;7.924;2024-03-08T01:35:10;1.30;99.90
42615;DHT22;28754;47.700;7.924;2024-03-08T01:37:57;1.30;99.90
42615;DHT22;28754;47.700;7.924;2024-03-08T01:40:44;1.30;99.90
42615;DHT22;28754;47.700;7.924;2024-03-08T01:43:31;1.20;99.90
42615;DHT22;28754;47.700;7.924;2024-03-08T01:46:19;1.20;99.90
42615;DHT22;28754;47.700;7.924;2024-03-08T01:49:08;1.20;99.90
42615;DHT22;28754;47.700;7.924;2024-03-08T01:51:55;1.20;99.90
42615;DHT22;28754;47.700;7.924;2024-03-08T01:54:42;1.20;99.90
42615;DHT22;28754;47.700;7.924;2024-03-08T01:57:31;1.20;99.90
42615;DHT22;28754;47.700;7.924;2024-03-08T02:00:20;1.20;99.90
42615;DHT22;28754;47.700;7.924;2024-03-08T02:03:07;1.20;99.90
42615;DHT22;28754;47.700;7.924;2024-03-08T02:05:54;1.30;99.90
42615;DHT22;28754;47.700;7.924;2024-03-08T02:08:42;1.20;99.90
42615;DHT22;28754;47.700;7.924;2024-03-08T02:11:33;1.20;99.90
42615;DHT22;28754;47.700;7.924;2024-03-08T02:14:22;1.20;99.90
42615;DHT22;28754;47.700;7.924;2024-03-08T02:17:10;1.20;99.90
42615;DHT22;28754;47.700;7.924;2024-03-08T02:19:58;1.20;99.90
42615;DHT22;28754;47.700;7.924;2024-03-08T02:22:44;1.20;99.90
42615;DHT22;28754;47.700;7.924;2024-03-08T02:25:31;1.20;99.90
42615;DHT22;28754;47.700;7.924;2024-03-08T02:28:18;1.20;99.90
42615;DHT22;28754;47.700;7.924;2024-03-08T02:31:06;1.20;99.90
42615;DHT22;28754;47.700;7.924;2024-03-08T02:33:54;1.20;99.90
42615;DHT22;28754;47.700;7.924;2024-03-08T02:36:42;1.20;99.90
42615;DHT22;28754;47.700;7.924;2024-03-08T02:39:28;1.30;99.90
42615;DHT22;28754;47.700;7.924;2024-03-08T02:42:15;1.30;99.90
42615;DHT22;28754;47.700;7.924;2024-03-08T02:45:02;1.40;99.90
42615;DHT22;28754;47.700;7.924;2024-03-08T02:47:51;1.40;99.90
42615;DHT22;28754;47.700;7.924;2024-03-08T02:50:38;1.40;99.90
42615;DHT22;28754;47.700;7.924;2024-03-08T02:53:31;1.40;99.90
42615;DHT22;28754;47.700;7.924;2024-03-08T02:56:17;1.50;99.90
42615;DHT22;28754;47.700;7.924;2024-03-08T02:59:05;1.60;99.90
42615;DHT22;28754;47.700;7.924;2024-03-08T03:01:51;1.50;99.90
42615;DHT22;28754;47.700;7.924;2024-03-08T03:04:41;1.50;99.90
42615;DHT22;28754;47.700;7.924;2024-03-08T03:07:28;1.60;99.90
42615;DHT22;28754;47.700;7.924;2024-03-08T03:10:17;1.50;99.90
42615;DHT22;28754;47.700;7.924;2024-03-08T03:13:04;1.60;99.90
42615;DHT22;28754;47.700;7.924;2024-03-08T03:15:51;1.60;99.90
42615;DHT22;28754;47.700;7.924;2024-03-08T03:18:38;1.60;99.90
42615;DHT22;28754;47.700;7.924;2024-03-08T03:21:24;1.60;99.90
42615;DHT22;28754;47.700;7.924;2024-03-08T03:24:14;1.60;99.90
42615;DHT22;28754;47.700;7.924;2024-03-08T03:27:02;1.60;99.90
42615;DHT22;28754;47.700;7.924;2024-03-08T03:29:56;1.60;99.90
42615;DHT22;28754;47.700;7.924;2024-03-08T03:32:44;1.60;99.90
42615;DHT22;28754;47.700;7.924;2024-03-08T03:35:33;1.70;99.90
42615;DHT22;28754;47.700;7.924;2024-03-08T03:38:20;1.70;99.90
42615;DHT22;28754;47.700;7.924;2024-03-08T03:41:09;1.70;99.90
42615;DHT22;28754;47.700;7.924;2024-03-08T03:43:56;1.60;99.90
42615;DHT22;28754;47.700;7.924;2024-03-08T03:46:44;1.60;99.90
42615;DHT22;28754;47.700;7.924;2024-03-08T03:49:30;1.60;99.90
42615;DHT22;28754;47.700;7.924;2024-03-08T03:52:17;1.60;99.90
42615;DHT22;28754;47.700;7.924;2024-03-08T03:55:04;1.60;99.90
42615;DHT22;28754;47.700;7.924;2024-03-08T03:57:51;1.60;99.90
42615;DHT22;28754;47.700;7.924;2024-03-08T04:00:38;1.60;99.90
42615;DHT22;28754;47.700;7.924;2024-03-08T04:03:25;1.60;99.90
42615;DHT22;28754;47.700;7.924;2024-03-08T04:06:12;1.60;99.90
42615;DHT22;28754;47.700;7.924;2024-03-08T04:08:58;1.60;99.90
42615;DHT22;28754;47.700;7.924;2024-03-08T04:11:45;1.60;99.90
42615;DHT22;28754;47.700;7.924;2024-03-08T04:14:32;1.60;99.90
42615;DHT22;28754;47.700;7.924;2024-03-08T04:17:19;1.60;99.90
42615;DHT22;28754;47.700;7.924;2024-03-08T04:20:06;1.60;99.90
42615;DHT22;28754;47.700;7.924;2024-03-08T04:23:00;1.40;99.90
42615;DHT22;28754;47.700;7.924;2024-03-08T04:25:47;1.30;99.90
42615;DHT22;28754;47.700;7.924;2024-03-08T04:28:34;1.20;99.90
42615;DHT22;28754;47.700;7.924;2024-03-08T04:31:21;1.10;99.90
42615;DHT22;28754;47.700;7.924;2024-03-08T04:34:08;1.00;99.90
42615;DHT22;28754;47.700;7.924;2024-03-08T04:36:57;0.90;99.90
42615;DHT22;28754;47.700;7.924;2024-03-08T04:39:44;0.80;99.90
42615;DHT22;28754;47.700;7.924;2024-03-08T04:42:31;0.90;99.90
42615;DHT22;28754;47.700;7.924;2024-03-08T04:45:19;0.80;99.90
42615;DHT22;28754;47.700;7.924;2024-03-08T04:48:06;0.80;99.90
42615;DHT22;28754;47.700;7.924;2024-03-08T04:50:54;0.80;99.90
42615;DHT22;28754;47.700;7.924;2024-03-08T04:53:42;0.80;99.90
42615;DHT22;28754;47.700;7.924;2024-03-08T04:56:28;0.70;99.90
42615;DHT22;28754;47.700;7.924;2024-03-08T04:59:15;0.70;99.90
42615;DHT22;28754;47.700;7.924;2024-03-08T05:02:02;0.60;99.90
42615;DHT22;28754;47.700;7.924;2024-03-08T05:04:49;0.50;99.90
42615;DHT22;28754;47.700;7.924;2024-03-08T05:07:35;0.50;99.90
42615;DHT22;28754;47.700;7.924;2024-03-08T05:10:22;0.50;99.90
42615;DHT22;28754;47.700;7.924;2024-03-08T05:13:09;0.50;99.90
42615;DHT22;28754;47.700;7.924;2024-03-08T05:15:56;0.40;99.90
42615;DHT22;28754;47.700;7.924;2024-03-08T05:18:44;0.40;99.90
42615;DHT22;28754;47.700;7.924;2024-03-08T05:21:33;0.40;99.90
42615;DHT22;28754;47.700;7.924;2024-03-08T05:24:19;0.40;99.90
42615;DHT22;28754;47.700;7.924;2024-03-08T05:27:06;0.30;99.90
42615;DHT22;28754;47.700;7.924;2024-03-08T05:29:53;0.30;99.90
42615;DHT22;28754;47.700;7.924;2024-03-08T05:32:39;0.40;99.90
42615;DHT22;28754;47.700;7.924;2024-03-08T05:35:26;0.40;99.90
42615;DHT22;28754;47.700;7.924;2024-03-08T05:38:13;0.40;99.90
42615;DHT22;28754;47.700;7.924;2024-03-08T05:40:59;0.40;99.90
42615;DHT22;28754;47.700;7.924;2024-03-08T05:43:47;0.40;99.90
42615;DHT22;28754;47.700;7.924;2024-03-08T05:46:34;0.30;99.90
42615;DHT22;28754;47.700;7.924;2024-03-08T05:49:22;0.30;99.90
42615;DHT22;28754;47.700;7.924;2024-03-08T05:52:08;0.30;99.90
42615;DHT22;28754;47.700;7.924;2024-03-08T05:54:56;0.30;99.90
42615;DHT22;28754;47.700;7.924;2024-03-08T05:57:42;0.30;99.90
42615;DHT22;28754;47.700;7.924;2024-03-08T06:00:30;0.40;99.90
42615;DHT22;28754;47.700;7.924;2024-03-08T06:03:17;0.30;99.90
42615;DHT22;28754;47.700;7.924;2024-03-08T06:06:07;0.30;99.90
42615;DHT22;28754;47.700;7.924;2024-03-08T06:08:54;0.30;99.90
42615;DHT22;28754;47.700;7.924;2024-03-08T06:11:43;0.70;99.90
42615;DHT22;28754;47.700;7.924;2024-03-08T06:14:29;1.80;99.90
42615;DHT22;28754;47.700;7.924;2024-03-08T06:17:16;2.40;99.90
42615;DHT22;28754;47.700;7.924;2024-03-08T06:20:04;3.00;99.90
42615;DHT22;28754;47.700;7.924;2024-03-08T06:22:56;3.30;99.90
42615;DHT22;28754;47.700;7.924;2024-03-08T06:25:44;4.00;99.90
42615;DHT22;28754;47.700;7.924;2024-03-08T06:28:31;4.60;99.90
42615;DHT22;28754;47.700;7.924;2024-03-08T06:31:18;4.90;99.90
42615;DHT22;28754;47.700;7.924;2024-03-08T06:34:06;5.70;99.90
42615;DHT22;28754;47.700;7.924;2024-03-08T06:36:54;6.00;99.90
42615;DHT22;28754;47.700;7.924;2024-03-08T06:39:48;6.80;99.90
42615;DHT22;28754;47.700;7.924;2024-03-08T06:42:37;6.90;99.90
42615;DHT22;28754;47.700;7.924;2024-03-08T06:45:24;7.90;99.90
42615;DHT22;28754;47.700;7.924;2024-03-08T06:48:12;8.30;99.90
42615;DHT22;28754;47.700;7.924;2024-03-08T06:50:58;8.60;99.90
42615;DHT22;28754;47.700;7.924;2024-03-08T06:53:45;9.50;99.90
42615;DHT22;28754;47.700;7.924;2024-03-08T06:56:32;10.40;99.90
42615;DHT22;28754;47.700;7.924;2024-03-08T06:59:18;10.70;99.90
42615;DHT22;28754;47.700;7.924;2024-03-08T07:02:06;11.30;99.90
42615;DHT22;28754;47.700;7.924;2024-03-08T07:04:55;12.10;99.90
42615;DHT22;28754;47.700;7.924;2024-03-08T07:07:42;12.50;99.90
42615;DHT22;28754;47.700;7.924;2024-03-08T07:10:29;12.50;99.90
42615;DHT22;28754;47.700;7.924;2024-03-08T07:13:16;12.90;99.90
42615;DHT22;28754;47.700;7.924;2024-03-08T07:16:03;13.30;99.90
42615;DHT22;28754;47.700;7.924;2024-03-08T07:18:50;13.90;99.90
42615;DHT22;28754;47.700;7.924;2024-03-08T07:21:38;13.40;99.90
42615;DHT22;28754;47.700;7.924;2024-03-08T07:24:25;14.00;99.90
42615;DHT22;28754;47.700;7.924;2024-03-08T07:27:34;14.50;99.90
42615;DHT22;28754;47.700;7.924;2024-03-08T07:30:24;14.80;99.90
42615;DHT22;28754;47.700;7.924;2024-03-08T07:33:29;15.00;99.90
42615;DHT22;28754;47.700;7.924;2024-03-08T07:36:17;15.60;99.90
42615;DHT22;28754;47.700;7.924;2024-03-08T07:39:03;16.00;99.90
42615;DHT22;28754;47.700;7.924;2024-03-08T07:41:55;16.80;99.90
42615;DHT22;28754;47.700;7.924;2024-03-08T07:44:42;16.60;99.90
42615;DHT22;28754;47.700;7.924;2024-03-08T07:47:29;16.60;99.90
42615;DHT22;28754;47.700;7.924;2024-03-08T07:50:19;17.50;99.90
42615;DHT22;28754;47.700;7.924;2024-03-08T07:53:06;18.30;99.90
42615;DHT22;28754;47.700;7.924;2024-03-08T07:55:54;18.30;99.90
42615;DHT22;28754;47.700;7.924;2024-03-08T07:58:41;19.20;99.90
42615;DHT22;28754;47.700;7.924;2024-03-08T08:01:28;19.40;99.90
42615;DHT22;28754;47.700;7.924;2024-03-08T08:04:14;19.50;99.90
42615;DHT22;28754;47.700;7.924;2024-03-08T08:07:04;19.30;99.90
42615;DHT22;28754;47.700;7.924;2024-03-08T08:09:52;19.00;99.90
42615;DHT22;28754;47.700;7.924;2024-03-08T08:12:39;19.50;99.90
42615;DHT22;28754;47.700;7.924;2024-03-08T08:15:28;19.90;99.90
42615;DHT22;28754;47.700;7.924;2024-03-08T08:18:14;19.90;99.90
42615;DHT22;28754;47.700;7.924;2024-03-08T08:21:02;20.30;99.90
42615;DHT22;28754;47.700;7.924;2024-03-08T08:23:49;19.60;99.90
42615;DHT22;28754;47.700;7.924;2024-03-08T08:26:35;20.10;99.90
42615;DHT22;28754;47.700;7.924;2024-03-08T08:29:22;20.60;99.90
42615;DHT22;28754;47.700;7.924;2024-03-08T08:32:09;20.20;99.90
42615;DHT22;28754;47.700;7.924;2024-03-08T08:34:57;20.80;99.90
42615;DHT22;28754;47.700;7.924;2024-03-08T08:37:45;20.10;99.90
42615;DHT22;28754;47.700;7.924;2024-03-08T08:40:33;19.80;99.90
42615;DHT22;28754;47.700;7.924;2024-03-08T08:43:22;20.40;99.90
42615;DHT22;28754;47.700;7.924;2024-03-08T08:46:10;20.70;99.90
42615;DHT22;28754;47.700;7.924;2024-03-08T08:48:59;20.10;99.90
42615;DHT22;28754;47.700;7.924;2024-03-08T08:51:49;20.50;99.90
42615;DHT22;28754;47.700;7.924;2024-03-08T08:54:36;21.70;99.90
42615;DHT22;28754;47.700;7.924;2024-03-08T08:57:23;23.30;99.90
42615;DHT22;28754;47.700;7.924;2024-03-08T09:00:10;24.80;99.90
42615;DHT22;28754;47.700;7.924;2024-03-08T09:03:01;26.10;99.90
42615;DHT22;28754;47.700;7.924;2024-03-08T09:05:48;26.20;99.90
42615;DHT22;28754;47.700;7.924;2024-03-08T09:08:36;26.10;99.90
42615;DHT22;28754;47.700;7.924;2024-03-08T09:11:24;25.50;99.90
42615;DHT22;28754;47.700;7.924;2024-03-08T09:14:11;25.30;99.90
42615;DHT22;28754;47.700;7.924;2024-03-08T09:16:58;26.10;99.90
42615;DHT22;28754;47.700;7.924;2024-03-08T09:19:44;25.90;99.90
42615;DHT22;28754;47.700;7.924;2024-03-08T09:22:32;25.20;99.90
42615;DHT22;28754;47.700;7.924;2024-03-08T09:25:18;25.40;99.90
42615;DHT22;28754;47.700;7.924;2024-03-08T09:28:05;23.90;99.50
42615;DHT22;28754;47.700;7.924;2024-03-08T09:30:52;24.20;98.50
42615;DHT22;28754;47.700;7.924;2024-03-08T09:33:38;23.30;99.90
42615;DHT22;28754;47.700;7.924;2024-03-08T09:36:25;24.40;99.90
42615;DHT22;28754;47.700;7.924;2024-03-08T09:39:12;24.30;99.90
42615;DHT22;28754;47.700;7.924;2024-03-08T09:42:03;24.50;99.90
42615;DHT22;28754;47.700;7.924;2024-03-08T09:44:51;24.20;99.80
42615;DHT22;28754;47.700;7.924;2024-03-08T09:47:45;24.10;99.90
42615;DHT22;28754;47.700;7.924;2024-03-08T09:50:31;24.70;99.50
42615;DHT22;28754;47.700;7.924;2024-03-08T09:53:19;24.40;99.90
42615;DHT22;28754;47.700;7.924;2024-03-08T09:56:06;24.40;99.90
42615;DHT22;28754;47.700;7.924;2024-03-08T09:58:52;24.10;98.10
42615;DHT22;28754;47.700;7.924;2024-03-08T10:01:57;23.90;98.80
42615;DHT22;28754;47.700;7.924;2024-03-08T10:04:45;23.60;97.60
42615;DHT22;28754;47.700;7.924;2024-03-08T10:07:35;23.60;97.20
42615;DHT22;28754;47.700;7.924;2024-03-08T10:10:21;23.10;97.00
42615;DHT22;28754;47.700;7.924;2024-03-08T10:13:09;24.10;97.40
42615;DHT22;28754;47.700;7.924;2024-03-08T10:15:56;24.40;96.30
42615;DHT22;28754;47.700;7.924;2024-03-08T10:18:45;25.10;96.90
42615;DHT22;28754;47.700;7.924;2024-03-08T10:21:32;24.10;95.90
42615;DHT22;28754;47.700;7.924;2024-03-08T10:24:19;24.00;95.30
42615;DHT22;28754;47.700;7.924;2024-03-08T10:27:06;23.50;94.40
42615;DHT22;28754;47.700;7.924;2024-03-08T10:29:53;22.70;94.80
42615;DHT22;28754;47.700;7.924;2024-03-08T10:32:41;23.50;95.40
42615;DHT22;28754;47.700;7.924;2024-03-08T10:35:28;23.80;94.30
42615;DHT22;28754;47.700;7.924;2024-03-08T10:38:17;23.00;93.90
42615;DHT22;28754;47.700;7.924;2024-03-08T10:41:09;23.90;93.80
42615;DHT22;28754;47.700;7.924;2024-03-08T10:44:10;24.40;93.90
42615;DHT22;28754;47.700;7.924;2024-03-08T10:47:18;25.50;95.10
42615;DHT22;28754;47.700;7.924;2024-03-08T10:53:03;25.00;94.30
42615;DHT22;28754;47.700;7.924;2024-03-08T10:55:53;23.90;93.50
42615;DHT22;28754;47.700;7.924;2024-03-08T10:58:42;23.50;93.50
42615;DHT22;28754;47.700;7.924;2024-03-08T11:01:30;25.20;94.50
42615;DHT22;28754;47.700;7.924;2024-03-08T11:04:17;25.40;93.70
42615;DHT22;28754;47.700;7.924;2024-03-08T11:07:12;24.30;94.20
42615;DHT22;28754;47.700;7.924;2024-03-08T11:10:03;22.00;94.90
42615;DHT22;28754;47.700;7.924;2024-03-08T11:12:56;20.90;96.90
42615;DHT22;28754;47.700;7.924;2024-03-08T11:15:44;20.00;97.10
42615;DHT22;28754;47.700;7.924;2024-03-08T11:18:33;20.80;96.90
42615;DHT22;28754;47.700;7.924;2024-03-08T11:21:21;24.40;95.70
42615;DHT22;28754;47.700;7.924;2024-03-08T11:24:13;24.30;95.50
42615;DHT22;28754;47.700;7.924;2024-03-08T11:27:03;24.40;95.20
42615;DHT22;28754;47.700;7.924;2024-03-08T11:30:06;21.00;96.30
42615;DHT22;28754;47.700;7.924;2024-03-08T11:33:00;18.60;98.90
42615;DHT22;28754;47.700;7.924;2024-03-08T11:35:49;17.20;99.90
42615;DHT22;28754;47.700;7.924;2024-03-08T11:38:40;17.20;99.50
42615;DHT22;28754;47.700;7.924;2024-03-08T11:41:28;21.90;98.10
42615;DHT22;28754;47.700;7.924;2024-03-08T11:44:17;24.80;95.40
42615;DHT22;28754;47.700;7.924;2024-03-08T11:47:09;25.10;95.20
42615;DHT22;28754;47.700;7.924;2024-03-08T11:49:57;22.20;95.60
42615;DHT22;28754;47.700;7.924;2024-03-08T11:52:43;18.00;98.80
42615;DHT22;28754;47.700;7.924;2024-03-08T11:55:31;17.40;99.90
42615;DHT22;28754;47.700;7.924;2024-03-08T11:58:21;16.70;99.80
42615;DHT22;28754;47.700;7.924;2024-03-08T12:01:10;17.80;99.90
42615;DHT22;28754;47.700;7.924;2024-03-08T12:03:59;22.00;97.70
42615;DHT22;28754;47.700;7.924;2024-03-08T12:06:46;24.30;95.90
42615;DHT22;28754;47.700;7.924;2024-03-08T12:09:37;22.50;96.00
42615;DHT22;28754;47.700;7.924;2024-03-08T12:12:24;18.40;98.30
42615;DHT22;28754;47.700;7.924;2024-03-08T12:15:11;17.20;99.70
42615;DHT22;28754;47.700;7.924;2024-03-08T12:17:58;15.90;99.90
42615;DHT22;28754;47.700;7.924;2024-03-08T12:20:46;15.70;99.90
42615;DHT22;28754;47.700;7.924;2024-03-08T12:23:37;18.40;98.90
42615;DHT22;28754;47.700;7.924;2024-03-08T12:26:25;21.10;95.60
42615;DHT22;28754;47.700;7.924;2024-03-08T12:29:20;19.70;96.70
42615;DHT22;28754;47.700;7.924;2024-03-08T12:32:08;16.70;96.60
42615;DHT22;28754;47.700;7.924;2024-03-08T12:34:57;15.40;99.20
42615;DHT22;28754;47.700;7.924;2024-03-08T12:37:44;15.00;97.70
42615;DHT22;28754;47.700;7.924;2024-03-08T12:40:33;15.10;96.90
42615;DHT22;28754;47.700;7.924;2024-03-08T12:43:26;17.00;97.20
42615;DHT22;28754;47.700;7.924;2024-03-08T12:46:20;20.00;94.60
42615;DHT22;28754;47.700;7.924;2024-03-08T12:49:08;17.90;95.10
42615;DHT22;28754;47.700;7.924;2024-03-08T12:51:56;15.80;95.20
42615;DHT22;28754;47.700;7.924;2024-03-08T12:54:42;15.10;95.70
42615;DHT22;28754;47.700;7.924;2024-03-08T12:57:29;15.20;96.80
42615;DHT22;28754;47.700;7.924;2024-03-08T13:00:16;15.00;98.70
42615;DHT22;28754;47.700;7.924;2024-03-08T13:03:05;17.80;96.70
42615;DHT22;28754;47.700;7.924;2024-03-08T13:05:53;19.50;95.30
42615;DHT22;28754;47.700;7.924;2024-03-08T13:08:39;16.80;95.80
42615;DHT22;28754;47.700;7.924;2024-03-08T13:11:26;16.00;96.90
42615;DHT22;28754;47.700;7.924;2024-03-08T13:14:13;15.50;95.70
42615;DHT22;28754;47.700;7.924;2024-03-08T13:17:00;15.20;96.80
42615;DHT22;28754;47.700;7.924;2024-03-08T13:19:47;15.40;93.50
42615;DHT22;28754;47.700;7.924;2024-03-08T13:22:33;15.00;93.50
42615;DHT22;28754;47.700;7.924;2024-03-08T13:25:20;14.80;95.40
42615;DHT22;28754;47.700;7.924;2024-03-08T13:28:07;14.60;94.70
42615;DHT22;28754;47.700;7.924;2024-03-08T13:30:53;14.80;97.00
42615;DHT22;28754;47.700;7.924;2024-03-08T13:33:41;14.70;96.00
42615;DHT22;28754;47.700;7.924;2024-03-08T13:36:32;14.40;95.00
42615;DHT22;28754;47.700;7.924;2024-03-08T13:39:25;14.90;95.30
42615;DHT22;28754;47.700;7.924;2024-03-08T13:42:13;17.60;96.00
42615;DHT22;28754;47.700;7.924;2024-03-08T13:45:01;18.90;94.10
42615;DHT22;28754;47.700;7.924;2024-03-08T13:47:48;19.60;92.60
42615;DHT22;28754;47.700;7.924;2024-03-08T13:50:37;20.10;91.40
42615;DHT22;28754;47.700;7.924;2024-03-08T13:53:24;21.30;92.10
42615;DHT22;28754;47.700;7.924;2024-03-08T13:56:11;21.60;90.20
42615;DHT22;28754;47.700;7.924;2024-03-08T13:58:57;21.30;89.20
42615;DHT22;28754;47.700;7.924;2024-03-08T14:01:44;21.40;88.60
42615;DHT22;28754;47.700;7.924;2024-03-08T14:04:31;21.80;87.20
42615;DHT22;28754;47.700;7.924;2024-03-08T14:07:17;20.90;90.50
42615;DHT22;28754;47.700;7.924;2024-03-08T14:10:04;19.80;89.70
42615;DHT22;28754;47.700;7.924;2024-03-08T14:12:53;17.80;90.80
42615;DHT22;28754;47.700;7.924;2024-03-08T14:15:39;18.70;91.50
42615;DHT22;28754;47.700;7.924;2024-03-08T14:18:28;19.60;91.20
42615;DHT22;28754;47.700;7.924;2024-03-08T14:21:15;19.70;90.40
42615;DHT22;28754;47.700;7.924;2024-03-08T14:24:03;19.60;91.60
42615;DHT22;28754;47.700;7.924;2024-03-08T14:26:51;17.60;92.30
42615;DHT22;28754;47.700;7.924;2024-03-08T14:29:38;15.70;91.20
42615;DHT22;28754;47.700;7.924;2024-03-08T14:32:25;15.70;93.70
42615;DHT22;28754;47.700;7.924;2024-03-08T14:35:12;15.00;93.60
42615;DHT22;28754;47.700;7.924;2024-03-08T14:37:58;17.10;93.20
42615;DHT22;28754;47.700;7.924;2024-03-08T14:40:45;17.40;92.20
42615;DHT22;28754;47.700;7.924;2024-03-08T14:43:33;17.70;91.70
42615;DHT22;28754;47.700;7.924;2024-03-08T14:46:20;17.30;92.00
42615;DHT22;28754;47.700;7.924;2024-03-08T14:49:09;18.00;91.60
42615;DHT22;28754;47.700;7.924;2024-03-08T14:52:14;17.50;91.80
42615;DHT22;28754;47.700;7.924;2024-03-08T14:55:14;16.70;92.90
42615;DHT22;28754;47.700;7.924;2024-03-08T14:58:01;16.40;92.90
42615;DHT22;28754;47.700;7.924;2024-03-08T15:00:47;15.50;94.70
42615;DHT22;28754;47.700;7.924;2024-03-08T15:03:36;14.90;95.30
42615;DHT22;28754;47.700;7.924;2024-03-08T15:06:23;15.00;93.30
42615;DHT22;28754;47.700;7.924;2024-03-08T15:09:11;15.20;95.00
42615;DHT22;28754;47.700;7.924;2024-03-08T15:11:58;15.50;93.40
42615;DHT22;28754;47.700;7.924;2024-03-08T15:14:45;15.60;92.90
42615;DHT22;28754;47.700;7.924;2024-03-08T15:17:32;15.00;93.00
42615;DHT22;28754;47.700;7.924;2024-03-08T15:20:19;14.90;90.90
42615;DHT22;28754;47.700;7.924;2024-03-08T15:23:14;14.80;90.60
42615;DHT22;28754;47.700;7.924;2024-03-08T15:26:02;14.20;90.60
42615;DHT22;28754;47.700;7.924;2024-03-08T15:28:53;14.10;93.20
42615;DHT22;28754;47.700;7.924;2024-03-08T15:31:40;14.00;93.50
42615;DHT22;28754;47.700;7.924;2024-03-08T15:34:29;13.70;93.50
42615;DHT22;28754;47.700;7.924;2024-03-08T15:37:18;13.50;94.30
42615;DHT22;28754;47.700;7.924;2024-03-08T15:40:05;13.30;95.60
42615;DHT22;28754;47.700;7.924;2024-03-08T15:42:57;13.20;94.40
42615;DHT22;28754;47.700;7.924;2024-03-08T15:45:45;13.00;95.00
42615;DHT22;28754;47.700;7.924;2024-03-08T15:48:32;12.60;95.10
42615;DHT22;28754;47.700;7.924;2024-03-08T15:51:21;12.40;95.90
42615;DHT22;28754;47.700;7.924;2024-03-08T15:54:08;12.10;96.40
42615;DHT22;28754;47.700;7.924;2024-03-08T15:56:56;11.80;96.10
42615;DHT22;28754;47.700;7.924;2024-03-08T15:59:44;11.60;95.60
42615;DHT22;28754;47.700;7.924;2024-03-08T16:02:32;11.80;96.80
42615;DHT22;28754;47.700;7.924;2024-03-08T16:05:19;11.90;96.30
42615;DHT22;28754;47.700;7.924;2024-03-08T16:08:06;11.80;97.90
42615;DHT22;28754;47.700;7.924;2024-03-08T16:11:00;11.70;97.80
42615;DHT22;28754;47.700;7.924;2024-03-08T16:13:52;11.60;98.60
42615;DHT22;28754;47.700;7.924;2024-03-08T16:16:38;11.40;98.10
42615;DHT22;28754;47.700;7.924;2024-03-08T16:19:25;11.10;98.40
42615;DHT22;28754;47.700;7.924;2024-03-08T16:22:12;10.80;98.90
42615;DHT22;28754;47.700;7.924;2024-03-08T16:24:58;10.50;99.90
42615;DHT22;28754;47.700;7.924;2024-03-08T16:27:45;10.40;99.90
42615;DHT22;28754;47.700;7.924;2024-03-08T16:30:34;10.20;99.90
42615;DHT22;28754;47.700;7.924;2024-03-08T16:33:22;10.10;99.90
42615;DHT22;28754;47.700;7.924;2024-03-08T16:36:08;10.10;99.90
42615;DHT22;28754;47.700;7.924;2024-03-08T16:38:57;10.00;99.90
42615;DHT22;28754;47.700;7.924;2024-03-08T16:41:44;9.80;99.90
42615;DHT22;28754;47.700;7.924;2024-03-08T16:44:31;9.90;99.90
42615;DHT22;28754;47.700;7.924;2024-03-08T16:47:18;9.70;99.90
42615;DHT22;28754;47.700;7.924;2024-03-08T16:50:09;9.70;99.90
42615;DHT22;28754;47.700;7.924;2024-03-08T16:52:59;9.40;99.90
42615;DHT22;28754;47.700;7.924;2024-03-08T16:55:46;9.40;99.90
42615;DHT22;28754;47.700;7.924;2024-03-08T16:58:33;9.10;99.90
42615;DHT22;28754;47.700;7.924;2024-03-08T17:01:20;9.10;99.90
42615;DHT22;28754;47.700;7.924;2024-03-08T17:04:07;9.00;99.90
42615;DHT22;28754;47.700;7.924;2024-03-08T17:06:53;8.90;99.90
42615;DHT22;28754;47.700;7.924;2024-03-08T17:09:42;8.80;99.90
42615;DHT22;28754;47.700;7.924;2024-03-08T17:12:28;8.70;99.90
42615;DHT22;28754;47.700;7.924;2024-03-08T17:15:16;8.60;99.90
42615;DHT22;28754;47.700;7.924;2024-03-08T17:18:08;8.60;99.90
42615;DHT22;28754;47.700;7.924;2024-03-08T17:20:55;8.50;99.90
42615;DHT22;28754;47.700;7.924;2024-03-08T17:23:42;8.50;99.90
42615;DHT22;28754;47.700;7.924;2024-03-08T17:26:29;8.30;99.90
42615;DHT22;28754;47.700;7.924;2024-03-08T17:29:16;8.30;99.90
42615;DHT22;28754;47.700;7.924;2024-03-08T17:32:05;8.10;99.90
42615;DHT22;28754;47.700;7.924;2024-03-08T17:34:53;8.20;99.90
42615;DHT22;28754;47.700;7.924;2024-03-08T17:37:40;8.10;99.90
42615;DHT22;28754;47.700;7.924;2024-03-08T17:40:28;8.00;99.90
42615;DHT22;28754;47.700;7.924;2024-03-08T17:43:16;7.90;99.90
42615;DHT22;28754;47.700;7.924;2024-03-08T17:46:09;7.90;99.90
42615;DHT22;28754;47.700;7.924;2024-03-08T17:48:58;7.70;99.90
42615;DHT22;28754;47.700;7.924;2024-03-08T17:51:45;7.60;99.90